createdAt,value
2018-11-25T00:00:18.286Z,20.50
2018-11-25T00:01:18.324Z,21.10
2018-11-25T00:02:18.363Z,22.10
2018-11-25T00:03:18.401Z,21.00
2018-11-25T00:04:18.443Z,19.20
2018-11-25T00:05:18.488Z,20.20
2018-11-25T00:06:18.512Z,20.00
2018-11-25T00:07:18.546Z,19.30
2018-11-25T00:08:18.591Z,19.20
2018-11-25T00:09:18.623Z,19.30
2018-11-25T00:10:18.670Z,19.50
2018-11-25T00:11:18.696Z,20.00
2018-11-25T00:12:18.832Z,20.80
2018-11-25T00:13:18.771Z,19.90
2018-11-25T00:14:18.816Z,20.30
2018-11-25T00:15:18.843Z,19.80
2018-11-25T00:16:18.881Z,20.60
2018-11-25T00:17:18.917Z,22.00
2018-11-25T00:18:19.029Z,20.20
2018-11-25T00:19:18.999Z,19.70
2018-11-25T00:20:19.034Z,19.90
2018-11-25T00:21:19.066Z,20.40
2018-11-25T00:22:19.122Z,20.10
2018-11-25T00:23:19.139Z,19.70
2018-11-25T00:24:19.191Z,20.60
2018-11-25T00:25:19.215Z,19.20
2018-11-25T00:26:19.251Z,19.30
2018-11-25T00:27:19.289Z,20.00
2018-11-25T00:28:19.324Z,19.40
2018-11-25T00:29:19.361Z,18.50
2018-11-25T00:30:19.402Z,19.00
2018-11-25T00:31:19.441Z,19.00
2018-11-25T00:32:19.472Z,19.00
2018-11-25T00:33:19.519Z,20.40
2018-11-25T00:34:19.545Z,20.30
2018-11-25T00:35:19.583Z,20.60
2018-11-25T00:36:19.624Z,20.30
2018-11-25T00:37:19.662Z,21.10
2018-11-25T00:38:19.694Z,21.80
2018-11-25T00:39:19.731Z,20.40
2018-11-25T00:40:19.767Z,20.70
2018-11-25T00:41:19.806Z,20.20
2018-11-25T00:42:19.843Z,20.50
2018-11-25T00:43:19.878Z,20.30
2018-11-25T00:44:19.915Z,20.40
2018-11-25T00:45:19.951Z,20.60
2018-11-25T00:46:19.989Z,20.30
2018-11-25T00:47:20.327Z,20.60
2018-11-25T00:48:20.063Z,22.00
2018-11-25T00:49:20.107Z,24.50
2018-11-25T00:50:20.135Z,25.20
2018-11-25T00:51:20.173Z,26.10
2018-11-25T00:52:20.210Z,28.50
2018-11-25T00:53:20.247Z,25.60
2018-11-25T00:54:20.286Z,25.10
2018-11-25T00:55:20.320Z,23.20
2018-11-25T00:56:20.360Z,23.40
2018-11-25T00:57:20.395Z,22.20
2018-11-25T00:58:20.432Z,24.90
2018-11-25T00:59:20.470Z,24.30
2018-11-25T01:00:20.506Z,22.00
2018-11-25T01:01:20.543Z,23.00
2018-11-25T01:02:20.580Z,24.20
2018-11-25T01:03:20.618Z,21.30
2018-11-25T01:04:20.661Z,21.70
2018-11-25T01:05:20.696Z,21.30
2018-11-25T01:06:20.728Z,21.60
2018-11-25T01:07:20.764Z,20.10
2018-11-25T01:08:20.803Z,21.30
2018-11-25T01:09:20.841Z,20.60
2018-11-25T01:10:20.879Z,20.60
2018-11-25T01:11:20.919Z,20.00
2018-11-25T01:12:20.959Z,20.10
2018-11-25T01:13:20.986Z,21.70
2018-11-25T01:14:21.022Z,21.10
2018-11-25T01:15:21.071Z,20.80
2018-11-25T01:16:21.096Z,21.30
2018-11-25T01:17:21.205Z,21.10
2018-11-25T01:18:21.171Z,22.70
2018-11-25T01:19:21.208Z,20.70
2018-11-25T01:20:21.250Z,21.00
2018-11-25T01:21:21.288Z,20.80
2018-11-25T01:22:21.317Z,21.50
2018-11-25T01:23:21.354Z,22.10
2018-11-25T01:24:21.459Z,21.60
2018-11-25T01:25:21.428Z,21.30
2018-11-25T01:26:21.466Z,21.60
2018-11-25T01:27:21.512Z,20.40
2018-11-25T01:28:21.539Z,20.30
2018-11-25T01:29:21.576Z,19.10
2018-11-25T01:30:21.612Z,19.60
2018-11-25T01:31:21.650Z,19.60
2018-11-25T01:32:21.688Z,19.10
2018-11-25T01:33:21.724Z,19.30
2018-11-25T01:34:21.811Z,19.20
2018-11-25T01:35:21.800Z,18.00
2018-11-25T01:36:21.837Z,18.70
2018-11-25T01:37:21.871Z,19.10
2018-11-25T01:38:21.909Z,18.00
2018-11-25T01:39:21.947Z,18.30
2018-11-25T01:40:21.982Z,18.70
2018-11-25T01:41:22.031Z,18.10
2018-11-25T01:42:22.056Z,18.00
2018-11-25T01:43:22.095Z,17.30
2018-11-25T01:44:22.131Z,18.70
2018-11-25T01:45:22.177Z,18.80
2018-11-25T01:46:22.213Z,19.10
2018-11-25T01:47:22.242Z,18.70
2018-11-25T01:48:22.378Z,18.50
2018-11-25T01:49:22.679Z,18.80
2018-11-25T01:50:22.351Z,19.10
2018-11-25T01:51:22.393Z,19.00
2018-11-25T01:52:22.427Z,18.20
2018-11-25T01:53:22.467Z,18.80
2018-11-25T01:54:22.499Z,19.50
2018-11-25T01:55:22.545Z,19.30
2018-11-25T01:56:22.574Z,19.40
2018-11-25T01:57:22.610Z,19.00
2018-11-25T01:58:22.646Z,19.60
2018-11-25T01:59:22.684Z,19.10
2018-11-25T02:00:22.727Z,20.10
2018-11-25T02:01:22.864Z,20.80
2018-11-25T02:02:22.798Z,22.00
2018-11-25T02:03:22.841Z,22.30
2018-11-25T02:04:22.876Z,22.90
2018-11-25T02:05:22.947Z,23.80
2018-11-25T02:06:22.972Z,21.50
2018-11-25T02:07:22.980Z,20.50
2018-11-25T02:08:23.018Z,19.20
2018-11-25T02:09:23.054Z,21.00
2018-11-25T02:10:23.092Z,19.80
2018-11-25T02:11:23.127Z,20.00
2018-11-25T02:12:23.163Z,19.80
2018-11-25T02:13:23.201Z,20.40
2018-11-25T02:14:23.239Z,20.60
2018-11-25T02:15:23.289Z,22.10
2018-11-25T02:16:23.312Z,22.20
2018-11-25T02:17:23.348Z,20.50
2018-11-25T02:18:23.391Z,20.10
2018-11-25T02:19:23.429Z,20.20
2018-11-25T02:20:23.462Z,19.50
2018-11-25T02:21:23.495Z,20.20
2018-11-25T02:22:23.531Z,20.40
2018-11-25T02:23:23.570Z,19.60
2018-11-25T02:24:23.606Z,19.30
2018-11-25T02:25:23.644Z,19.40
2018-11-25T02:26:23.683Z,19.10
2018-11-25T02:27:23.717Z,18.90
2018-11-25T02:28:23.755Z,18.40
2018-11-25T02:29:23.788Z,19.60
2018-11-25T02:30:23.834Z,18.50
2018-11-25T02:31:23.867Z,19.30
2018-11-25T02:32:23.901Z,19.00
2018-11-25T02:33:23.937Z,18.40
2018-11-25T02:34:23.972Z,19.70
2018-11-25T02:35:24.013Z,19.30
2018-11-25T02:36:24.048Z,19.40
2018-11-25T02:37:24.085Z,18.70
2018-11-25T02:38:24.121Z,20.40
2018-11-25T02:39:24.173Z,19.70
2018-11-25T02:40:24.199Z,19.00
2018-11-25T02:41:24.232Z,19.20
2018-11-25T02:42:24.267Z,19.00
2018-11-25T02:43:24.306Z,18.80
2018-11-25T02:44:24.342Z,19.00
2018-11-25T02:45:24.378Z,19.90
2018-11-25T02:46:24.416Z,18.80
2018-11-25T02:47:24.454Z,21.40
2018-11-25T02:48:24.490Z,20.90
2018-11-25T02:49:24.526Z,22.60
2018-11-25T02:50:24.564Z,24.70
2018-11-25T02:51:24.600Z,26.50
2018-11-25T02:52:24.637Z,23.90
2018-11-25T02:53:24.672Z,24.80
2018-11-25T02:54:24.710Z,22.80
2018-11-25T02:55:24.754Z,23.60
2018-11-25T02:56:24.787Z,21.30
2018-11-25T02:57:24.822Z,19.40
2018-11-25T02:58:24.857Z,19.60
2018-11-25T02:59:24.944Z,18.90
2018-11-25T03:00:25.010Z,19.20
2018-11-25T03:01:25.028Z,18.30
2018-11-25T03:02:25.006Z,19.70
2018-11-25T03:03:25.039Z,19.50
2018-11-25T03:04:25.207Z,20.40
2018-11-25T03:05:25.125Z,20.50
2018-11-25T03:06:25.153Z,23.80
2018-11-25T03:07:25.195Z,23.60
2018-11-25T03:08:25.223Z,22.70
2018-11-25T03:09:25.265Z,21.40
2018-11-25T03:10:25.296Z,20.90
2018-11-25T03:11:25.334Z,22.30
2018-11-25T03:12:25.371Z,22.90
2018-11-25T03:13:25.415Z,24.60
2018-11-25T03:14:25.445Z,25.80
2018-11-25T03:15:25.664Z,25.00
2018-11-25T03:16:25.526Z,23.60
2018-11-25T03:17:25.557Z,23.20
2018-11-25T03:18:25.594Z,20.90
2018-11-25T03:19:25.630Z,21.60
2018-11-25T03:20:25.670Z,20.50
2018-11-25T03:21:25.702Z,21.30
2018-11-25T03:22:25.737Z,19.30
2018-11-25T03:23:25.775Z,18.50
2018-11-25T03:24:25.816Z,19.50
2018-11-25T03:25:25.849Z,19.40
2018-11-25T03:26:25.884Z,20.00
2018-11-25T03:27:25.922Z,19.10
2018-11-25T03:28:26.008Z,18.10
2018-11-25T03:29:25.998Z,18.60
2018-11-25T03:30:26.031Z,19.40
2018-11-25T03:31:26.068Z,18.60
2018-11-25T03:32:26.106Z,18.40
2018-11-25T03:33:26.143Z,18.90
2018-11-25T03:34:26.180Z,17.90
2018-11-25T03:35:26.215Z,18.40
2018-11-25T03:36:26.252Z,18.70
2018-11-25T03:37:26.290Z,19.00
2018-11-25T03:38:26.328Z,19.00
2018-11-25T03:39:26.362Z,18.80
2018-11-25T03:40:26.404Z,19.10
2018-11-25T03:41:26.437Z,19.90
2018-11-25T03:42:26.472Z,19.70
2018-11-25T03:43:26.509Z,20.20
2018-11-25T03:44:26.549Z,19.30
2018-11-25T03:45:26.583Z,20.20
2018-11-25T03:46:26.617Z,20.30
2018-11-25T03:47:26.657Z,20.40
2018-11-25T03:48:26.694Z,20.40
2018-11-25T03:49:26.731Z,21.50
2018-11-25T03:50:26.767Z,21.30
2018-11-25T03:51:26.804Z,21.50
2018-11-25T03:52:26.840Z,21.10
2018-11-25T03:53:26.882Z,21.60
2018-11-25T03:54:26.911Z,21.50
2018-11-25T03:55:26.949Z,21.80
2018-11-25T03:56:26.989Z,20.60
2018-11-25T03:57:27.023Z,20.40
2018-11-25T03:58:27.059Z,20.70
2018-11-25T03:59:27.095Z,19.90
2018-11-25T04:00:27.141Z,20.50
2018-11-25T04:01:27.168Z,20.00
2018-11-25T04:02:27.210Z,19.80
2018-11-25T04:03:27.244Z,20.20
2018-11-25T04:04:27.280Z,19.10
2018-11-25T04:05:27.315Z,19.70
2018-11-25T04:06:27.349Z,19.50
2018-11-25T04:07:27.391Z,19.00
2018-11-25T04:08:27.425Z,18.40
2018-11-25T04:09:27.460Z,19.30
2018-11-25T04:10:27.495Z,17.90
2018-11-25T04:11:27.534Z,17.40
2018-11-25T04:12:27.570Z,18.40
2018-11-25T04:13:27.607Z,17.80
2018-11-25T04:14:27.654Z,18.00
2018-11-25T04:15:27.680Z,17.30
2018-11-25T04:16:27.714Z,17.20
2018-11-25T04:17:27.753Z,17.30
2018-11-25T04:18:27.788Z,17.90
2018-11-25T04:19:27.826Z,19.30
2018-11-25T04:20:27.862Z,18.30
2018-11-25T04:21:27.899Z,18.90
2018-11-25T04:22:27.938Z,18.40
2018-11-25T04:23:27.971Z,19.20
2018-11-25T04:24:28.011Z,20.30
2018-11-25T04:25:28.045Z,20.00
2018-11-25T04:26:28.092Z,18.80
2018-11-25T04:27:28.120Z,18.20
2018-11-25T04:28:28.154Z,17.60
2018-11-25T04:29:28.192Z,16.70
2018-11-25T04:30:28.227Z,17.90
2018-11-25T04:31:28.266Z,17.50
2018-11-25T04:32:28.302Z,18.30
2018-11-25T04:33:28.338Z,18.20
2018-11-25T04:34:28.380Z,17.60
2018-11-25T04:35:28.415Z,17.60
2018-11-25T04:36:28.512Z,17.20
2018-11-25T04:37:28.485Z,17.40
2018-11-25T04:38:28.522Z,17.20
2018-11-25T04:39:28.556Z,17.80
2018-11-25T04:40:28.597Z,17.70
2018-11-25T04:41:28.630Z,17.20
2018-11-25T04:42:28.666Z,16.70
2018-11-25T04:43:28.722Z,16.10
2018-11-25T04:44:28.745Z,16.50
2018-11-25T04:45:28.777Z,17.10
2018-11-25T04:46:28.813Z,16.40
2018-11-25T04:47:28.852Z,16.60
2018-11-25T04:48:28.889Z,17.60
2018-11-25T04:49:28.924Z,17.00
2018-11-25T04:50:28.967Z,17.10
2018-11-25T04:51:28.997Z,16.80
2018-11-25T04:52:29.042Z,15.70
2018-11-25T04:53:29.071Z,15.60
2018-11-25T04:54:29.107Z,15.00
2018-11-25T04:55:29.145Z,15.00
2018-11-25T04:56:29.181Z,14.60
2018-11-25T04:57:29.219Z,15.10
2018-11-25T04:58:29.254Z,15.90
2018-11-25T04:59:29.300Z,16.30
2018-11-25T05:00:29.328Z,15.80
2018-11-25T05:01:29.364Z,16.30
2018-11-25T05:02:29.402Z,15.40
2018-11-25T05:03:29.440Z,17.10
2018-11-25T05:04:29.488Z,16.70
2018-11-25T05:05:29.511Z,15.50
2018-11-25T05:06:29.547Z,18.20
2018-11-25T05:07:29.585Z,17.70
2018-11-25T05:08:29.622Z,17.90
2018-11-25T05:09:29.657Z,18.30
2018-11-25T05:10:29.693Z,18.30
2018-11-25T05:11:29.730Z,18.90
2018-11-25T05:12:29.767Z,18.30
2018-11-25T05:13:29.807Z,18.10
2018-11-25T05:14:29.839Z,19.50
2018-11-25T05:15:29.875Z,19.10
2018-11-25T05:16:29.914Z,19.80
2018-11-25T05:17:30.231Z,20.60
2018-11-25T05:18:30.001Z,19.90
2018-11-25T05:19:30.023Z,20.50
2018-11-25T05:20:30.063Z,20.50
2018-11-25T05:21:30.096Z,22.20
2018-11-25T05:22:30.131Z,21.60
2018-11-25T05:23:30.168Z,22.20
2018-11-25T05:24:30.205Z,21.60
2018-11-25T05:25:30.241Z,22.70
2018-11-25T05:26:30.277Z,20.80
2018-11-25T05:27:30.326Z,20.20
2018-11-25T05:28:30.350Z,21.40
2018-11-25T05:29:30.388Z,22.40
2018-11-25T05:30:30.423Z,20.80
2018-11-25T05:31:30.459Z,22.20
2018-11-25T05:32:30.497Z,21.70
2018-11-25T05:33:30.534Z,21.70
2018-11-25T05:34:30.571Z,22.00
2018-11-25T05:35:30.603Z,21.70
2018-11-25T05:36:30.642Z,21.20
2018-11-25T05:37:30.680Z,21.70
2018-11-25T05:38:30.717Z,22.10
2018-11-25T05:39:30.752Z,19.80
2018-11-25T05:40:30.816Z,21.10
2018-11-25T05:41:30.828Z,21.90
2018-11-25T05:42:30.861Z,22.00
2018-11-25T05:43:30.898Z,21.10
2018-11-25T05:44:30.935Z,21.20
2018-11-25T05:45:30.971Z,20.40
2018-11-25T05:46:31.005Z,22.00
2018-11-25T05:47:31.042Z,21.60
2018-11-25T05:48:31.089Z,20.10
2018-11-25T05:49:36.359Z,20.30
2018-11-25T05:50:31.151Z,20.70
2018-11-25T05:51:31.189Z,20.00
2018-11-25T05:52:31.226Z,21.20
2018-11-25T05:53:31.263Z,21.00
2018-11-25T05:54:31.297Z,20.30
2018-11-25T05:55:31.341Z,18.90
2018-11-25T05:56:31.459Z,22.10
2018-11-25T05:57:31.408Z,19.90
2018-11-25T05:58:31.445Z,20.30
2018-11-25T05:59:31.480Z,20.80
2018-11-25T06:00:31.519Z,20.30
2018-11-25T06:01:31.554Z,20.70
2018-11-25T06:02:31.591Z,18.80
2018-11-25T06:03:31.627Z,18.90
2018-11-25T06:04:31.663Z,19.00
2018-11-25T06:05:31.705Z,18.90
2018-11-25T06:06:31.736Z,18.70
2018-11-25T06:07:31.771Z,18.10
2018-11-25T06:08:31.818Z,18.60
2018-11-25T06:09:31.847Z,18.60
2018-11-25T06:10:31.884Z,17.40
2018-11-25T06:11:31.918Z,18.40
2018-11-25T06:12:31.955Z,17.30
2018-11-25T06:13:31.993Z,18.30
2018-11-25T06:14:32.039Z,17.20
2018-11-25T06:15:32.065Z,17.30
2018-11-25T06:16:32.106Z,18.10
2018-11-25T06:17:32.137Z,17.20
2018-11-25T06:18:32.177Z,17.60
2018-11-25T06:19:32.210Z,17.40
2018-11-25T06:20:32.247Z,17.50
2018-11-25T06:21:32.282Z,17.70
2018-11-25T06:22:32.319Z,16.00
2018-11-25T06:23:32.356Z,17.60
2018-11-25T06:24:32.474Z,16.40
2018-11-25T06:25:32.430Z,16.80
2018-11-25T06:26:32.464Z,15.40
2018-11-25T06:27:38.081Z,16.30
2018-11-25T06:28:32.539Z,15.90
2018-11-25T06:29:32.574Z,15.90
2018-11-25T06:30:32.617Z,16.40
2018-11-25T06:31:32.653Z,16.20
2018-11-25T06:32:32.685Z,16.20
2018-11-25T06:33:32.721Z,15.20
2018-11-25T06:34:32.757Z,15.20
2018-11-25T06:35:32.793Z,14.90
2018-11-25T06:36:32.832Z,15.00
2018-11-25T06:37:32.867Z,14.70
2018-11-25T06:38:32.906Z,15.20
2018-11-25T06:39:32.945Z,16.00
2018-11-25T06:40:32.976Z,15.40
2018-11-25T06:41:34.058Z,15.30
2018-11-25T06:42:33.099Z,16.00
2018-11-25T06:43:33.086Z,15.90
2018-11-25T06:44:33.126Z,15.20
2018-11-25T06:45:33.191Z,16.10
2018-11-25T06:46:33.199Z,16.60
2018-11-25T06:47:33.230Z,17.10
2018-11-25T06:48:33.281Z,17.00
2018-11-25T06:49:33.359Z,18.00
2018-11-25T06:50:33.341Z,16.90
2018-11-25T06:51:33.376Z,16.50
2018-11-25T06:52:33.414Z,16.10
2018-11-25T06:53:33.450Z,16.30
2018-11-25T06:54:33.522Z,15.10
2018-11-25T06:55:33.528Z,14.60
2018-11-25T06:56:33.579Z,15.00
2018-11-25T06:57:33.598Z,14.90
2018-11-25T06:58:33.634Z,14.40
2018-11-25T06:59:33.684Z,15.50
2018-11-25T07:00:33.707Z,15.20
2018-11-25T07:01:33.803Z,15.00
2018-11-25T07:02:33.790Z,16.30
2018-11-25T07:03:33.819Z,16.20
2018-11-25T07:04:33.855Z,17.00
2018-11-25T07:05:33.892Z,17.70
2018-11-25T07:06:33.929Z,17.10
2018-11-25T07:07:33.971Z,18.00
2018-11-25T07:08:34.001Z,17.00
2018-11-25T07:09:34.038Z,16.20
2018-11-25T07:10:34.074Z,16.60
2018-11-25T07:11:34.115Z,17.00
2018-11-25T07:12:34.149Z,17.70
2018-11-25T07:13:34.186Z,16.60
2018-11-25T07:14:34.241Z,16.80
2018-11-25T07:15:34.267Z,16.80
2018-11-25T07:16:34.296Z,17.00
2018-11-25T07:17:34.338Z,17.10
2018-11-25T07:18:34.370Z,17.60
2018-11-25T07:19:34.403Z,16.90
2018-11-25T07:20:34.441Z,17.00
2018-11-25T07:21:34.478Z,16.50
2018-11-25T07:22:34.522Z,17.00
2018-11-25T07:23:34.551Z,17.70
2018-11-25T07:24:34.603Z,18.30
2018-11-25T07:25:34.797Z,18.10
2018-11-25T07:26:34.661Z,17.70
2018-11-25T07:27:34.698Z,18.50
2018-11-25T07:28:34.746Z,19.90
2018-11-25T07:29:34.771Z,21.40
2018-11-25T07:30:34.814Z,23.70
2018-11-25T07:31:34.852Z,26.40
2018-11-25T07:32:34.882Z,28.50
2018-11-25T07:33:34.922Z,26.60
2018-11-25T07:34:34.962Z,25.30
2018-11-25T07:35:34.992Z,24.70
2018-11-25T07:36:35.031Z,23.60
2018-11-25T07:37:35.067Z,24.10
2018-11-25T07:38:35.102Z,24.90
2018-11-25T07:39:35.142Z,23.60
2018-11-25T07:40:35.394Z,23.20
2018-11-25T07:41:35.216Z,23.00
2018-11-25T07:42:35.249Z,22.60
2018-11-25T07:43:35.288Z,22.20
2018-11-25T07:44:35.327Z,18.80
2018-11-25T07:45:35.366Z,19.70
2018-11-25T07:46:35.404Z,16.80
2018-11-25T07:47:35.444Z,15.80
2018-11-25T07:48:35.471Z,16.40
2018-11-25T07:49:35.517Z,15.70
2018-11-25T07:50:35.544Z,15.00
2018-11-25T07:51:35.582Z,14.10
2018-11-25T07:52:35.622Z,14.30
2018-11-25T07:53:35.659Z,14.00
2018-11-25T07:54:35.694Z,14.20
2018-11-25T07:55:35.730Z,15.00
2018-11-25T07:56:35.767Z,13.50
2018-11-25T07:57:35.808Z,14.60
2018-11-25T07:58:35.841Z,13.70
2018-11-25T07:59:35.891Z,15.10
2018-11-25T08:00:35.916Z,14.80
2018-11-25T08:01:35.953Z,13.80
2018-11-25T08:02:41.414Z,13.90
2018-11-25T08:03:36.029Z,14.10
2018-11-25T08:04:36.065Z,14.00
2018-11-25T08:05:36.106Z,14.30
2018-11-25T08:06:36.137Z,14.00
2018-11-25T08:07:36.194Z,13.70
2018-11-25T08:08:36.313Z,14.30
2018-11-25T08:09:36.259Z,14.20
2018-11-25T08:10:36.344Z,14.50
2018-11-25T08:11:36.324Z,14.60
2018-11-25T08:12:36.365Z,14.20
2018-11-25T08:13:36.398Z,14.50
2018-11-25T08:14:36.437Z,16.10
2018-11-25T08:15:36.472Z,16.50
2018-11-25T08:16:36.511Z,15.50
2018-11-25T08:17:36.554Z,16.20
2018-11-25T08:18:36.590Z,16.20
2018-11-25T08:19:36.629Z,16.10
2018-11-25T08:20:36.663Z,17.20
2018-11-25T08:21:36.696Z,16.10
2018-11-25T08:22:36.746Z,16.30
2018-11-25T08:23:36.771Z,18.10
2018-11-25T08:24:36.806Z,17.90
2018-11-25T08:25:36.847Z,17.30
2018-11-25T08:26:36.881Z,18.00
2018-11-25T08:27:36.926Z,17.90
2018-11-25T08:28:36.957Z,18.50
2018-11-25T08:29:36.994Z,18.20
2018-11-25T08:30:37.041Z,17.90
2018-11-25T08:31:37.077Z,17.70
2018-11-25T08:32:37.112Z,17.80
2018-11-25T08:33:37.148Z,18.00
2018-11-25T08:34:37.180Z,18.20
2018-11-25T08:35:37.226Z,19.80
2018-11-25T08:36:37.259Z,19.70
2018-11-25T08:37:37.294Z,19.70
2018-11-25T08:38:37.344Z,20.40
2018-11-25T08:39:37.367Z,19.20
2018-11-25T08:40:37.407Z,19.40
2018-11-25T08:41:37.453Z,19.60
2018-11-25T08:42:37.478Z,18.90
2018-11-25T08:43:37.517Z,19.50
2018-11-25T08:44:37.554Z,21.80
2018-11-25T08:45:37.594Z,22.00
2018-11-25T08:46:37.630Z,22.60
2018-11-25T08:47:37.677Z,23.00
2018-11-25T08:48:37.706Z,21.30
2018-11-25T08:49:37.745Z,20.30
2018-11-25T08:50:37.788Z,19.60
2018-11-25T08:51:37.819Z,21.10
2018-11-25T08:52:37.856Z,20.00
2018-11-25T08:53:37.898Z,21.30
2018-11-25T08:54:37.930Z,22.50
2018-11-25T08:55:37.969Z,21.80
2018-11-25T08:56:38.006Z,23.00
2018-11-25T08:57:38.043Z,21.80
2018-11-25T08:58:38.091Z,20.40
2018-11-25T08:59:38.119Z,21.30
2018-11-25T09:00:38.156Z,19.60
2018-11-25T09:01:38.196Z,20.20
2018-11-25T09:02:38.233Z,18.90
2018-11-25T09:03:38.277Z,20.60
2018-11-25T09:04:38.311Z,20.70
2018-11-25T09:05:38.349Z,19.50
2018-11-25T09:06:38.386Z,20.30
2018-11-25T09:07:38.428Z,21.50
2018-11-25T09:08:38.465Z,20.30
2018-11-25T09:09:38.505Z,19.30
2018-11-25T09:10:38.536Z,19.40
2018-11-25T09:11:38.572Z,19.60
2018-11-25T09:12:38.610Z,19.90
2018-11-25T09:13:38.934Z,37.60
2018-11-25T09:14:38.694Z,40.40
2018-11-25T09:15:38.727Z,33.50
2018-11-25T09:16:38.814Z,27.20
2018-11-25T09:17:38.827Z,24.00
2018-11-25T09:18:38.877Z,22.90
2018-11-25T09:19:38.879Z,21.80
2018-11-25T09:20:38.913Z,19.30
2018-11-25T09:21:38.951Z,19.50
2018-11-25T09:22:38.988Z,17.50
2018-11-25T09:23:39.035Z,19.50
2018-11-25T09:24:39.072Z,18.10
2018-11-25T09:25:39.158Z,17.40
2018-11-25T09:26:39.137Z,16.30
2018-11-25T09:27:39.175Z,18.00
2018-11-25T09:28:39.215Z,17.40
2018-11-25T09:29:39.311Z,17.50
2018-11-25T09:30:39.289Z,17.10
2018-11-25T09:31:39.327Z,18.50
2018-11-25T09:32:39.375Z,18.20
2018-11-25T09:33:39.407Z,17.70
2018-11-25T09:34:39.446Z,18.00
2018-11-25T09:35:39.481Z,17.20
2018-11-25T09:36:39.529Z,17.40
2018-11-25T09:37:39.555Z,16.40
2018-11-25T09:38:39.594Z,16.30
2018-11-25T09:39:39.636Z,17.10
2018-11-25T09:40:39.673Z,16.90
2018-11-25T09:41:39.708Z,17.00
2018-11-25T09:42:39.749Z,16.50
2018-11-25T09:43:39.791Z,16.90
2018-11-25T09:44:39.821Z,17.10
2018-11-25T09:45:39.862Z,16.00
2018-11-25T09:46:42.709Z,15.90
2018-11-25T09:47:39.945Z,16.40
2018-11-25T09:48:39.976Z,16.70
2018-11-25T09:49:40.014Z,16.60
2018-11-25T09:50:40.050Z,15.90
2018-11-25T09:51:40.097Z,16.10
2018-11-25T09:52:40.128Z,16.90
2018-11-25T09:53:40.171Z,17.30
2018-11-25T09:54:40.206Z,18.00
2018-11-25T09:55:40.243Z,16.90
2018-11-25T09:56:40.291Z,17.10
2018-11-25T09:57:40.320Z,16.70
2018-11-25T09:58:40.354Z,18.00
2018-11-25T09:59:40.399Z,19.80
2018-11-25T10:00:40.434Z,18.30
2018-11-25T10:01:40.479Z,18.60
2018-11-25T10:02:40.508Z,17.40
2018-11-25T10:03:40.547Z,17.60
2018-11-25T10:04:40.591Z,17.70
2018-11-25T10:05:40.630Z,20.80
2018-11-25T10:06:40.664Z,18.70
2018-11-25T10:07:40.725Z,18.60
2018-11-25T10:08:40.751Z,18.80
2018-11-25T10:09:40.802Z,17.80
2018-11-25T10:10:40.871Z,18.10
2018-11-25T10:11:40.864Z,18.20
2018-11-25T10:12:40.893Z,21.50
2018-11-25T10:13:41.179Z,21.50
2018-11-25T10:14:41.056Z,22.40
2018-11-25T10:15:41.018Z,21.10
2018-11-25T10:16:41.056Z,20.20
2018-11-25T10:17:41.082Z,20.10
2018-11-25T10:18:41.127Z,21.40
2018-11-25T10:19:41.158Z,21.80
2018-11-25T10:20:41.202Z,21.10
2018-11-25T10:21:41.253Z,21.30
2018-11-25T10:22:41.278Z,19.40
2018-11-25T10:23:41.314Z,19.60
2018-11-25T10:24:41.368Z,20.10
2018-11-25T10:25:41.387Z,19.50
2018-11-25T10:26:41.424Z,19.40
2018-11-25T10:27:41.463Z,20.00
2018-11-25T10:28:41.505Z,20.40
2018-11-25T10:29:41.540Z,19.30
2018-11-25T10:30:41.578Z,20.10
2018-11-25T10:31:41.619Z,19.50
2018-11-25T10:32:42.370Z,19.00
2018-11-25T10:33:41.705Z,18.10
2018-11-25T10:34:41.730Z,18.80
2018-11-25T10:35:41.770Z,19.30
2018-11-25T10:36:41.807Z,20.60
2018-11-25T10:37:41.845Z,19.70
2018-11-25T10:38:41.884Z,19.30
2018-11-25T10:39:41.927Z,19.20
2018-11-25T10:40:41.968Z,18.60
2018-11-25T10:41:41.999Z,17.40
2018-11-25T10:42:42.039Z,18.80
2018-11-25T10:43:42.076Z,18.20
2018-11-25T10:44:42.120Z,18.70
2018-11-25T10:45:42.153Z,18.90
2018-11-25T10:46:42.191Z,17.90
2018-11-25T10:47:42.231Z,19.20
2018-11-25T10:48:42.269Z,17.60
2018-11-25T10:49:42.318Z,17.30
2018-11-25T10:50:42.367Z,17.90
2018-11-25T10:51:42.401Z,17.80
2018-11-25T10:52:42.424Z,18.10
2018-11-25T10:53:42.478Z,18.30
2018-11-25T10:54:42.503Z,17.90
2018-11-25T10:55:42.549Z,17.70
2018-11-25T10:56:42.589Z,20.30
2018-11-25T10:57:42.847Z,17.20
2018-11-25T10:58:42.720Z,17.40
2018-11-25T10:59:42.695Z,17.60
2018-11-25T11:00:42.735Z,17.60
2018-11-25T11:01:42.775Z,20.40
2018-11-25T11:02:42.816Z,21.20
2018-11-25T11:03:42.860Z,20.20
2018-11-25T11:04:42.892Z,20.10
2018-11-25T11:05:42.932Z,19.80
2018-11-25T11:06:42.971Z,19.50
2018-11-25T11:07:43.017Z,18.90
2018-11-25T11:08:43.083Z,19.70
2018-11-25T11:09:43.094Z,18.70
2018-11-25T11:10:43.139Z,18.50
2018-11-25T11:11:43.173Z,18.20
2018-11-25T11:12:43.206Z,17.70
2018-11-25T11:13:43.244Z,17.40
2018-11-25T11:14:43.285Z,17.40
2018-11-25T11:15:43.325Z,18.10
2018-11-25T11:16:43.362Z,17.90
2018-11-25T11:17:43.606Z,17.90
2018-11-25T11:18:43.440Z,17.50
2018-11-25T11:19:43.479Z,16.00
2018-11-25T11:20:43.578Z,16.90
2018-11-25T11:21:43.592Z,15.90
2018-11-25T11:22:43.597Z,16.80
2018-11-25T11:23:43.641Z,16.60
2018-11-25T11:24:43.677Z,16.10
2018-11-25T11:25:43.731Z,17.00
2018-11-25T11:26:43.754Z,17.30
2018-11-25T11:27:43.794Z,16.10
2018-11-25T11:28:43.843Z,16.10
2018-11-25T11:29:43.883Z,15.70
2018-11-25T11:30:43.911Z,15.10
2018-11-25T11:31:44.100Z,15.10
2018-11-25T11:32:44.348Z,15.60
2018-11-25T11:34:44.131Z,15.30
2018-11-25T11:35:44.115Z,14.60
2018-11-25T11:36:44.161Z,13.90
2018-11-25T11:37:44.189Z,14.60
2018-11-25T11:38:44.227Z,14.20
2018-11-25T11:39:44.299Z,14.40
2018-11-25T11:40:44.305Z,14.90
2018-11-25T11:41:44.498Z,15.00
2018-11-25T11:42:44.384Z,15.10
2018-11-25T11:43:44.421Z,14.70
2018-11-25T11:44:44.498Z,14.80
2018-11-25T11:45:44.532Z,13.80
2018-11-25T11:46:44.539Z,13.80
2018-11-25T11:47:44.578Z,14.00
2018-11-25T11:48:44.611Z,14.60
2018-11-25T11:49:44.657Z,14.30
2018-11-25T11:50:44.698Z,15.30
2018-11-25T11:51:44.732Z,15.00
2018-11-25T11:52:44.773Z,15.30
2018-11-25T11:53:44.810Z,15.70
2018-11-25T11:54:44.846Z,16.30
2018-11-25T11:55:44.889Z,14.80
2018-11-25T11:56:45.124Z,16.00
2018-11-25T11:57:44.976Z,15.20
2018-11-25T11:58:45.045Z,13.80
2018-11-25T11:59:45.054Z,13.80
2018-11-25T12:00:45.078Z,12.80
2018-11-25T12:01:45.127Z,12.80
2018-11-25T12:02:45.162Z,15.40
2018-11-25T12:03:45.317Z,14.90
2018-11-25T12:04:45.246Z,13.70
2018-11-25T12:05:45.271Z,13.90
2018-11-25T12:06:45.314Z,13.30
2018-11-25T12:07:45.359Z,12.50
2018-11-25T12:08:45.398Z,12.40
2018-11-25T12:09:45.441Z,11.50
2018-11-25T12:10:45.470Z,12.20
2018-11-25T12:11:45.510Z,13.00
2018-11-25T12:12:45.554Z,12.60
2018-11-25T12:13:45.597Z,13.00
2018-11-25T12:14:45.626Z,12.70
2018-11-25T12:15:45.676Z,13.10
2018-11-25T12:16:45.716Z,13.40
2018-11-25T12:17:45.745Z,13.60
2018-11-25T12:18:45.782Z,13.70
2018-11-25T12:19:45.817Z,14.50
2018-11-25T12:20:45.848Z,13.90
2018-11-25T12:21:45.895Z,14.20
2018-11-25T12:22:45.931Z,15.00
2018-11-25T12:23:45.980Z,14.80
2018-11-25T12:24:46.055Z,15.50
2018-11-25T12:25:46.043Z,15.70
2018-11-25T12:26:46.104Z,14.30
2018-11-25T12:27:46.126Z,16.00
2018-11-25T12:28:46.166Z,15.40
2018-11-25T12:29:46.208Z,16.40
2018-11-25T12:30:46.253Z,16.10
2018-11-25T12:31:46.277Z,15.30
2018-11-25T12:32:46.571Z,16.00
2018-11-25T12:33:46.357Z,16.40
2018-11-25T12:34:46.394Z,16.20
2018-11-25T12:35:46.431Z,16.70
2018-11-25T12:36:46.467Z,16.40
2018-11-25T12:37:46.514Z,15.80
2018-11-25T12:38:46.548Z,17.10
2018-11-25T12:39:46.582Z,16.80
2018-11-25T12:40:46.625Z,17.50
2018-11-25T12:41:46.663Z,17.80
2018-11-25T12:42:46.714Z,17.20
2018-11-25T12:43:46.738Z,16.30
2018-11-25T12:44:46.789Z,17.50
2018-11-25T12:45:46.832Z,15.70
2018-11-25T12:46:46.859Z,17.00
2018-11-25T12:47:46.902Z,16.70
2018-11-25T12:48:46.933Z,17.50
2018-11-25T12:49:46.977Z,15.80
2018-11-25T12:50:47.007Z,16.20
2018-11-25T12:51:47.042Z,16.20
2018-11-25T12:52:47.086Z,15.60
2018-11-25T12:53:47.133Z,15.70